sensor_id;sensor_type;location;lat;lon;timestamp;pressure;altitude;pressure_sealevel;temperature;humidity
50226;BME280;36113;50.742;6.432;2024-02-23T00:01:23;96335.16;;;3.54;90.62
50226;BME280;36113;50.742;6.432;2024-02-23T00:03:49;96345.91;;;3.54;90.35
50226;BME280;36113;50.742;6.432;2024-02-23T00:06:14;96333.41;;;3.44;90.04
50226;BME280;36113;50.742;6.432;2024-02-23T00:08:39;96332.09;;;3.42;89.81
50226;BME280;36113;50.742;6.432;2024-02-23T00:11:06;96302.28;;;3.19;89.66
50226;BME280;36113;50.742;6.432;2024-02-23T00:13:32;96342.22;;;3.26;89.66
50226;BME280;36113;50.742;6.432;2024-02-23T00:15:57;96334.50;;;3.19;89.79
50226;BME280;36113;50.742;6.432;2024-02-23T00:18:22;96375.63;;;3.39;89.20
50226;BME280;36113;50.742;6.432;2024-02-23T00:20:48;96364.75;;;3.25;89.42
50226;BME280;36113;50.742;6.432;2024-02-23T00:23:13;96379.72;;;3.31;89.54
50226;BME280;36113;50.742;6.432;2024-02-23T00:25:38;96385.09;;;3.31;89.20
50226;BME280;36113;50.742;6.432;2024-02-23T00:28:04;96375.75;;;3.28;88.79
50226;BME280;36113;50.742;6.432;2024-02-23T00:30:30;96381.66;;;3.25;89.03
50226;BME280;36113;50.742;6.432;2024-02-23T00:32:55;96393.25;;;3.21;88.35
50226;BME280;36113;50.742;6.432;2024-02-23T00:35:20;96381.59;;;3.06;88.69
50226;BME280;36113;50.742;6.432;2024-02-23T00:37:46;96379.63;;;3.12;88.75
50226;BME280;36113;50.742;6.432;2024-02-23T00:40:12;96369.69;;;2.83;88.90
50226;BME280;36113;50.742;6.432;2024-02-23T00:42:37;96399.06;;;3.04;89.07
50226;BME280;36113;50.742;6.432;2024-02-23T00:45:03;96399.09;;;2.99;89.22
50226;BME280;36113;50.742;6.432;2024-02-23T00:47:28;96393.69;;;3.04;88.69
50226;BME280;36113;50.742;6.432;2024-02-23T00:49:53;96405.69;;;3.11;88.38
50226;BME280;36113;50.742;6.432;2024-02-23T00:52:19;96394.81;;;2.98;88.25
50226;BME280;36113;50.742;6.432;2024-02-23T00:54:44;96419.16;;;3.06;88.23
50226;BME280;36113;50.742;6.432;2024-02-23T00:57:10;96394.34;;;2.90;88.48
50226;BME280;36113;50.742;6.432;2024-02-23T00:59:35;96442.16;;;3.18;89.05
50226;BME280;36113;50.742;6.432;2024-02-23T01:02:00;96427.63;;;3.19;88.49
50226;BME280;36113;50.742;6.432;2024-02-23T01:04:26;96407.91;;;3.04;89.06
50226;BME280;36113;50.742;6.432;2024-02-23T01:06:51;96434.88;;;3.18;88.90
50226;BME280;36113;50.742;6.432;2024-02-23T01:09:16;96401.81;;;2.94;88.52
50226;BME280;36113;50.742;6.432;2024-02-23T01:11:46;96439.19;;;3.19;87.66
50226;BME280;36113;50.742;6.432;2024-02-23T01:14:11;96399.13;;;2.94;86.52
50226;BME280;36113;50.742;6.432;2024-02-23T01:16:36;96426.69;;;3.04;86.24
50226;BME280;36113;50.742;6.432;2024-02-23T01:19:02;96423.75;;;3.06;86.79
50226;BME280;36113;50.742;6.432;2024-02-23T01:21:28;96441.16;;;3.08;86.74
50226;BME280;36113;50.742;6.432;2024-02-23T01:23:53;96427.28;;;3.01;86.68
50226;BME280;36113;50.742;6.432;2024-02-23T01:26:19;96398.19;;;2.79;86.10
50226;BME280;36113;50.742;6.432;2024-02-23T01:28:44;96450.59;;;3.01;85.56
50226;BME280;36113;50.742;6.432;2024-02-23T01:31:11;96439.91;;;2.96;85.73
50226;BME280;36113;50.742;6.432;2024-02-23T01:33:37;96443.13;;;2.98;85.46
50226;BME280;36113;50.742;6.432;2024-02-23T01:36:06;96425.50;;;2.86;85.19
50226;BME280;36113;50.742;6.432;2024-02-23T01:38:32;96450.19;;;2.88;85.16
50226;BME280;36113;50.742;6.432;2024-02-23T01:41:01;96452.81;;;2.94;84.71
50226;BME280;36113;50.742;6.432;2024-02-23T01:43:26;96463.03;;;2.92;85.22
50226;BME280;36113;50.742;6.432;2024-02-23T01:45:52;96456.06;;;2.90;85.39
50226;BME280;36113;50.742;6.432;2024-02-23T01:48:18;96464.63;;;2.93;84.99
50226;BME280;36113;50.742;6.432;2024-02-23T01:50:44;96464.63;;;2.93;84.81
50226;BME280;36113;50.742;6.432;2024-02-23T01:53:10;96467.84;;;2.95;84.69
50226;BME280;36113;50.742;6.432;2024-02-23T01:55:40;96455.53;;;2.88;84.81
50226;BME280;36113;50.742;6.432;2024-02-23T01:58:09;96475.91;;;2.89;85.51
50226;BME280;36113;50.742;6.432;2024-02-23T02:00:35;96458.75;;;2.90;84.77
50226;BME280;36113;50.742;6.432;2024-02-23T02:03:01;96451.22;;;2.93;84.86
50226;BME280;36113;50.742;6.432;2024-02-23T02:05:35;96450.91;;;2.94;84.14
50226;BME280;36113;50.742;6.432;2024-02-23T02:08:01;96461.97;;;2.93;84.42
50226;BME280;36113;50.742;6.432;2024-02-23T02:10:26;96459.84;;;2.84;83.80
50226;BME280;36113;50.742;6.432;2024-02-23T02:12:52;96469.47;;;2.90;83.65
50226;BME280;36113;50.742;6.432;2024-02-23T02:15:17;96470.84;;;2.88;84.09
50226;BME280;36113;50.742;6.432;2024-02-23T02:17:43;96470.88;;;2.83;83.16
50226;BME280;36113;50.742;6.432;2024-02-23T02:20:12;96460.44;;;2.81;83.12
50226;BME280;36113;50.742;6.432;2024-02-23T02:22:38;96432.13;;;2.60;83.57
50226;BME280;36113;50.742;6.432;2024-02-23T02:25:05;96471.69;;;2.78;83.34
50226;BME280;36113;50.742;6.432;2024-02-23T02:27:31;96463.91;;;2.77;82.77
50226;BME280;36113;50.742;6.432;2024-02-23T02:29:56;96459.16;;;2.68;82.82
50226;BME280;36113;50.742;6.432;2024-02-23T02:32:22;96445.19;;;2.72;82.22
50226;BME280;36113;50.742;6.432;2024-02-23T02:34:48;96466.09;;;2.75;82.06
50226;BME280;36113;50.742;6.432;2024-02-23T02:37:13;96423.59;;;2.53;81.64
50226;BME280;36113;50.742;6.432;2024-02-23T02:39:38;96423.09;;;2.45;81.63
50226;BME280;36113;50.742;6.432;2024-02-23T02:42:04;96463.69;;;2.73;81.82
50226;BME280;36113;50.742;6.432;2024-02-23T02:44:29;96440.69;;;2.62;81.57
50226;BME280;36113;50.742;6.432;2024-02-23T02:46:56;96469.59;;;2.75;81.58
50226;BME280;36113;50.742;6.432;2024-02-23T02:49:22;96479.22;;;2.76;82.01
50226;BME280;36113;50.742;6.432;2024-02-23T02:51:47;96461.06;;;2.68;82.56
50226;BME280;36113;50.742;6.432;2024-02-23T02:54:12;96479.78;;;2.73;82.69
50226;BME280;36113;50.742;6.432;2024-02-23T02:56:44;96473.59;;;2.78;82.73
50226;BME280;36113;50.742;6.432;2024-02-23T02:59:12;96441.81;;;2.56;82.54
50226;BME280;36113;50.742;6.432;2024-02-23T03:01:37;96480.31;;;2.70;82.70
50226;BME280;36113;50.742;6.432;2024-02-23T03:04:02;96484.06;;;2.74;82.54
50226;BME280;36113;50.742;6.432;2024-02-23T03:06:28;96495.56;;;2.80;82.28
50226;BME280;36113;50.742;6.432;2024-02-23T03:08:53;96451.75;;;2.55;82.05
50226;BME280;36113;50.742;6.432;2024-02-23T03:11:18;96484.00;;;2.84;81.56
50226;BME280;36113;50.742;6.432;2024-02-23T03:13:43;96450.06;;;2.64;81.59
50226;BME280;36113;50.742;6.432;2024-02-23T03:16:16;96469.28;;;2.82;81.26
50226;BME280;36113;50.742;6.432;2024-02-23T03:18:42;96464.19;;;2.80;81.42
50226;BME280;36113;50.742;6.432;2024-02-23T03:21:07;96464.19;;;2.80;81.58
50226;BME280;36113;50.742;6.432;2024-02-23T03:23:34;96451.44;;;2.62;81.69
50226;BME280;36113;50.742;6.432;2024-02-23T03:26:00;96476.00;;;2.74;82.17
50226;BME280;36113;50.742;6.432;2024-02-23T03:28:25;96463.16;;;2.71;82.56
50226;BME280;36113;50.742;6.432;2024-02-23T03:30:50;96473.06;;;2.76;82.00
50226;BME280;36113;50.742;6.432;2024-02-23T03:33:15;96469.38;;;2.66;82.25
50226;BME280;36113;50.742;6.432;2024-02-23T03:35:41;96491.88;;;2.71;82.48
50226;BME280;36113;50.742;6.432;2024-02-23T03:38:06;96443.78;;;2.40;82.45
50226;BME280;36113;50.742;6.432;2024-02-23T03:40:31;96474.97;;;2.70;82.32
50226;BME280;36113;50.742;6.432;2024-02-23T03:42:57;96440.53;;;2.48;82.04
50226;BME280;36113;50.742;6.432;2024-02-23T03:45:22;96478.78;;;2.64;82.48
50226;BME280;36113;50.742;6.432;2024-02-23T03:47:48;96440.28;;;2.44;82.22
50226;BME280;36113;50.742;6.432;2024-02-23T03:50:13;96468.06;;;2.64;82.42
50226;BME280;36113;50.742;6.432;2024-02-23T03:52:38;96478.47;;;2.65;82.38
50226;BME280;36113;50.742;6.432;2024-02-23T03:55:04;96483.00;;;2.70;82.10
50226;BME280;36113;50.742;6.432;2024-02-23T03:57:30;96470.16;;;2.67;81.60
50226;BME280;36113;50.742;6.432;2024-02-23T03:59:57;96464.00;;;2.66;81.72
50226;BME280;36113;50.742;6.432;2024-02-23T04:02:22;96458.91;;;2.65;81.51
50226;BME280;36113;50.742;6.432;2024-02-23T04:04:48;96465.69;;;2.57;81.83
50226;BME280;36113;50.742;6.432;2024-02-23T04:07:13;96459.50;;;2.57;81.09
50226;BME280;36113;50.742;6.432;2024-02-23T04:09:38;96473.94;;;2.61;81.39
50226;BME280;36113;50.742;6.432;2024-02-23T04:12:04;96487.94;;;2.58;80.92
50226;BME280;36113;50.742;6.432;2024-02-23T04:14:29;96480.94;;;2.62;80.83
50226;BME280;36113;50.742;6.432;2024-02-23T04:16:54;96460.63;;;2.51;80.48
50226;BME280;36113;50.742;6.432;2024-02-23T04:19:20;96474.78;;;2.61;80.60
50226;BME280;36113;50.742;6.432;2024-02-23T04:21:45;96482.25;;;2.64;80.70
50226;BME280;36113;50.742;6.432;2024-02-23T04:24:10;96493.72;;;2.75;81.30
50226;BME280;36113;50.742;6.432;2024-02-23T04:26:36;96475.50;;;2.72;81.34
50226;BME280;36113;50.742;6.432;2024-02-23T04:29:01;96486.72;;;2.79;81.33
50226;BME280;36113;50.742;6.432;2024-02-23T04:31:26;96427.97;;;2.38;81.12
50226;BME280;36113;50.742;6.432;2024-02-23T04:33:51;96485.69;;;2.70;81.16
50226;BME280;36113;50.742;6.432;2024-02-23T04:36:19;96463.84;;;2.47;81.01
50226;BME280;36113;50.742;6.432;2024-02-23T04:38:46;96496.41;;;2.70;81.78
50226;BME280;36113;50.742;6.432;2024-02-23T04:41:11;96497.47;;;2.74;81.53
50226;BME280;36113;50.742;6.432;2024-02-23T04:43:36;96453.63;;;2.49;81.59
50226;BME280;36113;50.742;6.432;2024-02-23T04:46:02;96461.91;;;2.58;81.72
50226;BME280;36113;50.742;6.432;2024-02-23T04:48:27;96481.16;;;2.71;81.54
50226;BME280;36113;50.742;6.432;2024-02-23T04:50:53;96477.16;;;2.63;81.52
50226;BME280;36113;50.742;6.432;2024-02-23T04:53:18;96436.50;;;2.45;81.52
50226;BME280;36113;50.742;6.432;2024-02-23T04:55:44;96464.31;;;2.60;81.39
50226;BME280;36113;50.742;6.432;2024-02-23T04:58:09;96464.59;;;2.58;81.49
50226;BME280;36113;50.742;6.432;2024-02-23T05:00:37;96467.75;;;2.65;81.48
50226;BME280;36113;50.742;6.432;2024-02-23T05:03:02;96464.81;;;2.67;81.48
50226;BME280;36113;50.742;6.432;2024-02-23T05:05:32;96443.44;;;2.52;81.62
50226;BME280;36113;50.742;6.432;2024-02-23T05:07:58;96470.16;;;2.67;81.49
50226;BME280;36113;50.742;6.432;2024-02-23T05:10:23;96468.53;;;2.71;81.55
50226;BME280;36113;50.742;6.432;2024-02-23T05:12:49;96465.31;;;2.69;81.49
50226;BME280;36113;50.742;6.432;2024-02-23T05:15:14;96457.84;;;2.66;82.08
50226;BME280;36113;50.742;6.432;2024-02-23T05:17:40;96424.75;;;2.41;81.87
50226;BME280;36113;50.742;6.432;2024-02-23T05:20:06;96445.81;;;2.58;81.54
50226;BME280;36113;50.742;6.432;2024-02-23T05:22:35;96461.56;;;2.70;82.00
50226;BME280;36113;50.742;6.432;2024-02-23T05:25:00;96466.66;;;2.72;82.39
50226;BME280;36113;50.742;6.432;2024-02-23T05:27:26;96419.06;;;2.48;82.14
50226;BME280;36113;50.742;6.432;2024-02-23T05:29:52;96448.97;;;2.65;82.34
50226;BME280;36113;50.742;6.432;2024-02-23T05:32:17;96441.75;;;2.66;82.52
50226;BME280;36113;50.742;6.432;2024-02-23T05:34:44;96430.19;;;2.65;82.81
50226;BME280;36113;50.742;6.432;2024-02-23T05:37:10;96396.31;;;2.40;82.87
50226;BME280;36113;50.742;6.432;2024-02-23T05:39:35;96444.66;;;2.69;82.99
50226;BME280;36113;50.742;6.432;2024-02-23T05:42:03;96445.75;;;2.68;83.34
50226;BME280;36113;50.742;6.432;2024-02-23T05:44:28;96459.44;;;2.67;83.64
50226;BME280;36113;50.742;6.432;2024-02-23T05:46:54;96447.44;;;2.59;83.74
50226;BME280;36113;50.742;6.432;2024-02-23T05:49:19;96450.06;;;2.64;83.83
50226;BME280;36113;50.742;6.432;2024-02-23T05:51:44;96398.69;;;2.47;83.65
50226;BME280;36113;50.742;6.432;2024-02-23T05:54:10;96427.56;;;2.60;83.91
50226;BME280;36113;50.742;6.432;2024-02-23T05:56:35;96403.22;;;2.52;84.04
50226;BME280;36113;50.742;6.432;2024-02-23T05:59:02;96400.25;;;2.53;83.82
50226;BME280;36113;50.742;6.432;2024-02-23T06:01:27;96421.09;;;2.66;83.24
50226;BME280;36113;50.742;6.432;2024-02-23T06:03:52;96433.13;;;2.69;83.59
50226;BME280;36113;50.742;6.432;2024-02-23T06:06:20;96419.19;;;2.67;83.04
50226;BME280;36113;50.742;6.432;2024-02-23T06:08:45;96408.78;;;2.60;82.87
50226;BME280;36113;50.742;6.432;2024-02-23T06:11:11;96422.13;;;2.71;82.56
50226;BME280;36113;50.742;6.432;2024-02-23T06:13:37;96393.59;;;2.51;82.18
50226;BME280;36113;50.742;6.432;2024-02-23T06:16:02;96417.56;;;2.71;82.17
50226;BME280;36113;50.742;6.432;2024-02-23T06:18:28;96410.09;;;2.68;81.41
50226;BME280;36113;50.742;6.432;2024-02-23T06:20:53;96428.56;;;2.75;81.39
50226;BME280;36113;50.742;6.432;2024-02-23T06:23:18;96436.34;;;2.71;81.08
50226;BME280;36113;50.742;6.432;2024-02-23T06:25:44;96416.53;;;2.67;81.43
50226;BME280;36113;50.742;6.432;2024-02-23T06:28:09;96397.63;;;2.48;81.46
50226;BME280;36113;50.742;6.432;2024-02-23T06:30:36;96407.00;;;2.51;81.29
50226;BME280;36113;50.742;6.432;2024-02-23T06:33:01;96452.16;;;2.73;81.07
50226;BME280;36113;50.742;6.432;2024-02-23T06:35:26;96409.38;;;2.52;80.73
50226;BME280;36113;50.742;6.432;2024-02-23T06:37:52;96440.94;;;2.65;81.06
50226;BME280;36113;50.742;6.432;2024-02-23T06:40:17;96412.84;;;2.58;80.35
50226;BME280;36113;50.742;6.432;2024-02-23T06:42:43;96442.50;;;2.72;80.53
50226;BME280;36113;50.742;6.432;2024-02-23T06:45:09;96461.50;;;2.80;80.12
50226;BME280;36113;50.742;6.432;2024-02-23T06:47:34;96449.69;;;2.81;80.11
50226;BME280;36113;50.742;6.432;2024-02-23T06:50:00;96450.97;;;2.89;79.79
50226;BME280;36113;50.742;6.432;2024-02-23T06:52:25;96455.75;;;2.92;79.25
50226;BME280;36113;50.742;6.432;2024-02-23T06:54:51;96421.63;;;2.63;79.45
50226;BME280;36113;50.742;6.432;2024-02-23T06:57:17;96459.78;;;2.95;79.67
50226;BME280;36113;50.742;6.432;2024-02-23T06:59:43;96437.28;;;2.90;79.87
50226;BME280;36113;50.742;6.432;2024-02-23T07:02:08;96448.22;;;2.99;79.66
50226;BME280;36113;50.742;6.432;2024-02-23T07:04:33;96453.06;;;2.97;79.56
50226;BME280;36113;50.742;6.432;2024-02-23T07:06:59;96428.72;;;2.88;78.98
50226;BME280;36113;50.742;6.432;2024-02-23T07:09:24;96458.06;;;3.09;79.86
50226;BME280;36113;50.742;6.432;2024-02-23T07:11:50;96443.06;;;3.08;79.03
50226;BME280;36113;50.742;6.432;2024-02-23T07:14:15;96439.03;;;3.05;78.97
50226;BME280;36113;50.742;6.432;2024-02-23T07:16:42;96455.84;;;3.16;78.70
50226;BME280;36113;50.742;6.432;2024-02-23T07:19:07;96456.88;;;3.20;78.78
50226;BME280;36113;50.742;6.432;2024-02-23T07:21:34;96444.56;;;3.19;78.65
50226;BME280;36113;50.742;6.432;2024-02-23T07:24:00;96444.22;;;3.26;78.64
50226;BME280;36113;50.742;6.432;2024-02-23T07:26:25;96455.16;;;3.35;78.13
50226;BME280;36113;50.742;6.432;2024-02-23T07:28:53;96423.63;;;3.16;78.19
50226;BME280;36113;50.742;6.432;2024-02-23T07:31:19;96467.44;;;3.41;77.50
50226;BME280;36113;50.742;6.432;2024-02-23T07:33:44;96463.59;;;3.52;77.54
50226;BME280;36113;50.742;6.432;2024-02-23T07:36:15;96458.72;;;3.54;78.05
50226;BME280;36113;50.742;6.432;2024-02-23T07:38:41;96485.50;;;3.64;76.59
50226;BME280;36113;50.742;6.432;2024-02-23T07:41:06;96500.56;;;3.60;76.75
50226;BME280;36113;50.742;6.432;2024-02-23T07:43:32;96481.75;;;3.60;76.59
50226;BME280;36113;50.742;6.432;2024-02-23T07:45:57;96417.59;;;3.29;76.51
50226;BME280;36113;50.742;6.432;2024-02-23T07:48:23;96475.50;;;3.70;76.50
50226;BME280;36113;50.742;6.432;2024-02-23T07:50:48;96470.41;;;3.68;76.66
50226;BME280;36113;50.742;6.432;2024-02-23T07:53:13;96441.88;;;3.48;76.04
50226;BME280;36113;50.742;6.432;2024-02-23T07:55:38;96475.16;;;3.77;76.19
50226;BME280;36113;50.742;6.432;2024-02-23T07:58:04;96447.81;;;3.69;76.29
50226;BME280;36113;50.742;6.432;2024-02-23T08:00:29;96485.75;;;3.92;76.05
50226;BME280;36113;50.742;6.432;2024-02-23T08:02:54;96466.47;;;3.85;75.88
50226;BME280;36113;50.742;6.432;2024-02-23T08:05:24;96456.41;;;3.71;76.05
50226;BME280;36113;50.742;6.432;2024-02-23T08:07:49;96488.22;;;3.88;75.99
50226;BME280;36113;50.742;6.432;2024-02-23T08:10:15;96481.50;;;3.86;76.04
50226;BME280;36113;50.742;6.432;2024-02-23T08:12:40;96477.69;;;3.92;76.18
50226;BME280;36113;50.742;6.432;2024-02-23T08:15:06;96471.28;;;4.12;75.13
50226;BME280;36113;50.742;6.432;2024-02-23T08:17:32;96466.34;;;4.19;74.93
50226;BME280;36113;50.742;6.432;2024-02-23T08:19:57;96490.44;;;4.48;74.77
50226;BME280;36113;50.742;6.432;2024-02-23T08:22:22;96491.03;;;4.45;75.04
50226;BME280;36113;50.742;6.432;2024-02-23T08:24:48;96481.38;;;4.20;74.71
50226;BME280;36113;50.742;6.432;2024-02-23T08:27:14;96474.13;;;4.21;74.80
50226;BME280;36113;50.742;6.432;2024-02-23T08:29:39;96479.78;;;4.43;74.15
50226;BME280;36113;50.742;6.432;2024-02-23T08:32:05;96516.88;;;4.65;73.00
50226;BME280;36113;50.742;6.432;2024-02-23T08:34:31;96523.69;;;4.57;74.00
50226;BME280;36113;50.742;6.432;2024-02-23T08:36:56;96525.88;;;4.55;74.06
50226;BME280;36113;50.742;6.432;2024-02-23T08:39:21;96514.91;;;4.52;73.75
50226;BME280;36113;50.742;6.432;2024-02-23T08:41:47;96505.56;;;4.44;73.58
50226;BME280;36113;50.742;6.432;2024-02-23T08:44:13;96511.53;;;4.41;74.43
50226;BME280;36113;50.742;6.432;2024-02-23T08:46:38;96527.75;;;4.55;73.83
50226;BME280;36113;50.742;6.432;2024-02-23T08:49:04;96518.38;;;4.52;73.60
50226;BME280;36113;50.742;6.432;2024-02-23T08:51:30;96510.59;;;4.51;73.53
50226;BME280;36113;50.742;6.432;2024-02-23T08:53:55;96479.25;;;4.41;73.47
50226;BME280;36113;50.742;6.432;2024-02-23T08:56:22;96518.78;;;4.84;73.15
50226;BME280;36113;50.742;6.432;2024-02-23T08:58:47;96485.25;;;4.76;72.97
50226;BME280;36113;50.742;6.432;2024-02-23T09:01:13;96510.53;;;5.13;73.26
50226;BME280;36113;50.742;6.432;2024-02-23T09:03:38;96487.81;;;5.19;72.01
50226;BME280;36113;50.742;6.432;2024-02-23T09:06:04;96505.47;;;5.44;71.00
50226;BME280;36113;50.742;6.432;2024-02-23T09:08:29;96526.84;;;5.54;70.34
50226;BME280;36113;50.742;6.432;2024-02-23T09:10:54;96475.50;;;5.32;69.55
50226;BME280;36113;50.742;6.432;2024-02-23T09:13:20;96489.16;;;5.35;69.45
50226;BME280;36113;50.742;6.432;2024-02-23T09:15:45;96513.09;;;5.56;69.91
50226;BME280;36113;50.742;6.432;2024-02-23T09:18:10;96503.13;;;5.70;69.46
50226;BME280;36113;50.742;6.432;2024-02-23T09:20:36;96516.19;;;5.96;68.96
50226;BME280;36113;50.742;6.432;2024-02-23T09:23:01;96520.66;;;5.87;68.07
50226;BME280;36113;50.742;6.432;2024-02-23T09:25:26;96518.53;;;5.84;68.33
50226;BME280;36113;50.742;6.432;2024-02-23T09:27:52;96528.66;;;5.92;68.11
50226;BME280;36113;50.742;6.432;2024-02-23T09:30:17;96543.56;;;6.03;68.41
50226;BME280;36113;50.742;6.432;2024-02-23T09:32:42;96545.78;;;6.15;68.06
50226;BME280;36113;50.742;6.432;2024-02-23T09:35:09;96530.19;;;6.12;67.35
50226;BME280;36113;50.742;6.432;2024-02-23T09:37:34;96519.41;;;5.98;67.35
50226;BME280;36113;50.742;6.432;2024-02-23T09:40:00;96551.69;;;6.31;67.73
50226;BME280;36113;50.742;6.432;2024-02-23T09:42:28;96544.19;;;6.41;66.96
50226;BME280;36113;50.742;6.432;2024-02-23T09:44:58;96541.50;;;6.55;66.35
50226;BME280;36113;50.742;6.432;2024-02-23T09:47:29;96535.56;;;6.81;65.44
50226;BME280;36113;50.742;6.432;2024-02-23T09:49:55;96525.03;;;6.93;65.99
50226;BME280;36113;50.742;6.432;2024-02-23T09:52:21;96532.56;;;7.19;65.12
50226;BME280;36113;50.742;6.432;2024-02-23T09:54:47;96530.53;;;7.02;64.86
50226;BME280;36113;50.742;6.432;2024-02-23T09:57:14;96503.84;;;6.73;65.34
50226;BME280;36113;50.742;6.432;2024-02-23T09:59:40;96556.13;;;7.04;65.95
50226;BME280;36113;50.742;6.432;2024-02-23T10:02:08;96537.25;;;7.27;64.84
50226;BME280;36113;50.742;6.432;2024-02-23T10:04:38;96513.47;;;7.15;64.31
50226;BME280;36113;50.742;6.432;2024-02-23T10:07:05;96543.44;;;7.28;65.11
50226;BME280;36113;50.742;6.432;2024-02-23T10:09:31;96557.19;;;7.17;65.04
50226;BME280;36113;50.742;6.432;2024-02-23T10:11:56;96499.94;;;6.79;64.63
50226;BME280;36113;50.742;6.432;2024-02-23T10:14:22;96497.16;;;6.70;65.34
50226;BME280;36113;50.742;6.432;2024-02-23T10:16:47;96518.56;;;6.80;65.42
50226;BME280;36113;50.742;6.432;2024-02-23T10:19:17;96494.38;;;6.61;66.09
50226;BME280;36113;50.742;6.432;2024-02-23T10:21:44;96546.66;;;6.93;66.63
50226;BME280;36113;50.742;6.432;2024-02-23T10:24:10;96540.94;;;6.95;67.67
50226;BME280;36113;50.742;6.432;2024-02-23T10:26:35;96548.75;;;6.82;67.26
50226;BME280;36113;50.742;6.432;2024-02-23T10:29:00;96546.09;;;6.69;66.81
50226;BME280;36113;50.742;6.432;2024-02-23T10:31:26;96527.78;;;6.66;67.54
50226;BME280;36113;50.742;6.432;2024-02-23T10:33:54;96552.69;;;7.13;67.59
50226;BME280;36113;50.742;6.432;2024-02-23T10:36:19;96574.09;;;7.23;66.06
50226;BME280;36113;50.742;6.432;2024-02-23T10:38:50;96552.59;;;7.40;66.97
50226;BME280;36113;50.742;6.432;2024-02-23T10:41:17;96555.66;;;7.70;66.16
50226;BME280;36113;50.742;6.432;2024-02-23T10:43:47;96556.97;;;7.73;65.13
50226;BME280;36113;50.742;6.432;2024-02-23T10:46:17;96571.91;;;7.70;65.81
50226;BME280;36113;50.742;6.432;2024-02-23T10:48:44;96516.91;;;7.30;63.98
50226;BME280;36113;50.742;6.432;2024-02-23T10:51:11;96561.94;;;7.57;63.97
50226;BME280;36113;50.742;6.432;2024-02-23T10:53:39;96571.09;;;7.70;64.07
50226;BME280;36113;50.742;6.432;2024-02-23T10:56:06;96551.16;;;7.79;64.03
50226;BME280;36113;50.742;6.432;2024-02-23T10:58:32;96561.34;;;8.14;63.00
50226;BME280;36113;50.742;6.432;2024-02-23T11:01:02;96565.56;;;8.28;63.13
50226;BME280;36113;50.742;6.432;2024-02-23T11:03:30;96549.00;;;7.99;62.20
50226;BME280;36113;50.742;6.432;2024-02-23T11:05:56;96574.19;;;7.99;62.76
50226;BME280;36113;50.742;6.432;2024-02-23T11:08:21;96583.31;;;7.90;63.93
50226;BME280;36113;50.742;6.432;2024-02-23T11:10:50;96551.09;;;7.71;62.93
50226;BME280;36113;50.742;6.432;2024-02-23T11:13:29;96571.97;;;7.79;63.89
50226;BME280;36113;50.742;6.432;2024-02-23T11:16:01;96556.63;;;7.97;63.86
50226;BME280;36113;50.742;6.432;2024-02-23T11:18:30;96565.44;;;8.02;63.20
50226;BME280;36113;50.742;6.432;2024-02-23T11:21:02;96552.47;;;7.91;62.20
50226;BME280;36113;50.742;6.432;2024-02-23T11:23:40;96529.44;;;7.71;62.31
50226;BME280;36113;50.742;6.432;2024-02-23T11:26:06;96550.25;;;7.70;62.37
50226;BME280;36113;50.742;6.432;2024-02-23T11:28:33;96526.13;;;7.51;62.62
50226;BME280;36113;50.742;6.432;2024-02-23T11:31:12;96545.34;;;7.50;61.93
50226;BME280;36113;50.742;6.432;2024-02-23T11:33:38;96566.97;;;7.72;63.18
50226;BME280;36113;50.742;6.432;2024-02-23T11:36:07;96563.28;;;7.68;62.58
50226;BME280;36113;50.742;6.432;2024-02-23T11:38:33;96564.59;;;7.71;61.98
50226;BME280;36113;50.742;6.432;2024-02-23T11:41:00;96560.56;;;7.59;61.98
50226;BME280;36113;50.742;6.432;2024-02-23T11:43:26;96545.13;;;7.60;61.92
50226;BME280;36113;50.742;6.432;2024-02-23T11:45:52;96557.16;;;7.76;62.08
50226;BME280;36113;50.742;6.432;2024-02-23T11:48:18;96552.09;;;7.83;62.65
50226;BME280;36113;50.742;6.432;2024-02-23T11:50:43;96539.00;;;7.77;61.54
50226;BME280;36113;50.742;6.432;2024-02-23T11:53:08;96559.28;;;7.88;61.59
50226;BME280;36113;50.742;6.432;2024-02-23T11:55:34;96529.88;;;7.64;61.21
50226;BME280;36113;50.742;6.432;2024-02-23T11:58:00;96541.56;;;7.73;62.14
50226;BME280;36113;50.742;6.432;2024-02-23T12:00:26;96521.31;;;7.48;61.95
50226;BME280;36113;50.742;6.432;2024-02-23T12:02:51;96544.84;;;7.70;61.52
50226;BME280;36113;50.742;6.432;2024-02-23T12:05:16;96522.38;;;7.61;61.75
50226;BME280;36113;50.742;6.432;2024-02-23T12:07:42;96563.50;;;8.03;62.36
50226;BME280;36113;50.742;6.432;2024-02-23T12:10:08;96531.78;;;7.95;61.14
50226;BME280;36113;50.742;6.432;2024-02-23T12:12:35;96546.50;;;8.02;61.18
50226;BME280;36113;50.742;6.432;2024-02-23T12:15:01;96552.16;;;7.92;61.74
50226;BME280;36113;50.742;6.432;2024-02-23T12:17:27;96521.81;;;7.50;61.48
50226;BME280;36113;50.742;6.432;2024-02-23T12:20:02;96564.53;;;7.84;62.34
50226;BME280;36113;50.742;6.432;2024-02-23T12:22:28;96546.59;;;7.88;61.62
50226;BME280;36113;50.742;6.432;2024-02-23T12:24:57;96525.41;;;7.59;61.47
50226;BME280;36113;50.742;6.432;2024-02-23T12:27:22;96558.88;;;7.72;61.46
50226;BME280;36113;50.742;6.432;2024-02-23T12:29:53;96553.53;;;7.81;61.69
50226;BME280;36113;50.742;6.432;2024-02-23T12:32:20;96548.47;;;7.88;62.20
50226;BME280;36113;50.742;6.432;2024-02-23T12:34:45;96553.97;;;8.05;61.57
50226;BME280;36113;50.742;6.432;2024-02-23T12:37:14;96550.19;;;8.06;61.25
50226;BME280;36113;50.742;6.432;2024-02-23T12:39:40;96555.72;;;8.33;60.78
50226;BME280;36113;50.742;6.432;2024-02-23T12:42:05;96555.38;;;8.34;61.16
50226;BME280;36113;50.742;6.432;2024-02-23T12:44:30;96562.00;;;8.42;60.00
50226;BME280;36113;50.742;6.432;2024-02-23T12:46:56;96530.91;;;8.08;59.33
50226;BME280;36113;50.742;6.432;2024-02-23T12:49:21;96552.88;;;8.06;59.97
50226;BME280;36113;50.742;6.432;2024-02-23T12:51:46;96538.50;;;7.97;60.50
50226;BME280;36113;50.742;6.432;2024-02-23T12:54:12;96548.59;;;8.14;59.68
50226;BME280;36113;50.742;6.432;2024-02-23T12:56:37;96541.69;;;8.31;59.51
50226;BME280;36113;50.742;6.432;2024-02-23T12:59:02;96531.66;;;8.31;59.66
50226;BME280;36113;50.742;6.432;2024-02-23T13:01:27;96522.00;;;8.07;58.84
50226;BME280;36113;50.742;6.432;2024-02-23T13:03:53;96539.94;;;8.26;59.59